Algoma Mariner — CFN5517 — position and weather

sailwx.info

Track history (hours):
 
Tides and Currents Weather Stations Pressure Air Temp Water Temp Dewpoint Dewpoint Depression Visibility Wind Speed Wind Dir Waves Ship Positions

Algoma Mariner

Last reported at 2015-May-22 13:18 UTC. Time now 2015-May-24 13:17 UTC.
Position N 45°09' W 086°21'.

Length 225 m; draft 8.1 m.

Type: Cargo ship. MMSI: 316014050.

Date/timePositionNaut miles runAvg speedWind from/ knotsBaromVisibWave heightAir tempDewpointWater temp
2015-May-22 13:18N 45°09' W 086°21'1013.1
2015-May-22 12:34N 45°18' W 086°16'1313.1
2015-May-22 11:33N 45°31' W 086°10'1312.6
2015-May-22 10:33N 45°42' W 086°03'1313.0
2015-May-22 09:33N 45°49' W 085°47'1212.4
2015-May-22 08:33N 45°53' W 085°30'1312.8
2015-May-22 07:34N 45°51' W 085°12'1312.9
2015-May-22 06:34N 45°50' W 084°54'1212.3
2015-May-22 05:33N 45°46' W 084°37'1212.0
2015-May-22 04:33N 45°41' W 084°21'1111.3
2015-May-22 03:33N 45°38' W 084°06'1212.5
2015-May-22 02:33N 45°32' W 083°50'  
2015-May-19 10:26N 44°02' W 076°28'1111.8
2015-May-19 09:33N 44°10' W 076°19'111 7.3
2015-May-18 18:21N 45°14' W 074°11'7 8.3
2015-May-18 17:32N 45°14' W 074°01'6 6.2
2015-May-18 16:33N 45°18' W 073°56'1 0.8
2015-May-18 15:33N 45°19' W 073°55'3 3.4
2015-May-18 14:33N 45°21' W 073°51'8 8.2
2015-May-18 13:32N 45°25' W 073°41'65 6.2
2015-May-18 03:05N 46°16' W 072°42'510.2
2015-May-18 02:33N 46°18' W 072°35'9 9.5
2015-May-18 01:33N 46°24' W 072°24'10 9.9
2015-May-18 00:31N 46°31' W 072°13'9 9.7
2015-May-17 23:33N 46°35' W 072°01'  
2015-May-12 21:28N 46°31' W 072°13'1213.3
2015-May-12 20:34N 46°23' W 072°26'1312.7
2015-May-12 19:34N 46°16' W 072°41'1513.8
2015-May-12 18:30N 46°07' W 072°58'  
Track history (hours):
 
Tides and Currents Weather Stations Pressure Air Temp Water Temp Dewpoint Dewpoint Depression Visibility Wind Speed Wind Dir Waves Ship Positions

Algoma Mariner

Last reported at 2015-May-22 13:18 UTC. Time now 2015-May-24 13:17 UTC.
Position N 45°09' W 086°21'.

Length 225 m; draft 8.1 m.

Type: Cargo ship. MMSI: 316014050.

Date/timePositionNaut miles runAvg speedWind from/ knotsBaromVisibWave heightAir tempDewpointWater temp
2015-May-22 13:18N 45°09' W 086°21'1013.1
2015-May-22 12:34N 45°18' W 086°16'1313.1
2015-May-22 11:33N 45°31' W 086°10'1312.6
2015-May-22 10:33N 45°42' W 086°03'1313.0
2015-May-22 09:33N 45°49' W 085°47'1212.4
2015-May-22 08:33N 45°53' W 085°30'1312.8
2015-May-22 07:34N 45°51' W 085°12'1312.9
2015-May-22 06:34N 45°50' W 084°54'1212.3
2015-May-22 05:33N 45°46' W 084°37'1212.0
2015-May-22 04:33N 45°41' W 084°21'1111.3
2015-May-22 03:33N 45°38' W 084°06'1212.5
2015-May-22 02:33N 45°32' W 083°50'  
2015-May-19 10:26N 44°02' W 076°28'1111.8
2015-May-19 09:33N 44°10' W 076°19'111 7.3
2015-May-18 18:21N 45°14' W 074°11'7 8.3
2015-May-18 17:32N 45°14' W 074°01'6 6.2
2015-May-18 16:33N 45°18' W 073°56'1 0.8
2015-May-18 15:33N 45°19' W 073°55'3 3.4
2015-May-18 14:33N 45°21' W 073°51'8 8.2
2015-May-18 13:32N 45°25' W 073°41'65 6.2
2015-May-18 03:05N 46°16' W 072°42'510.2
2015-May-18 02:33N 46°18' W 072°35'9 9.5
2015-May-18 01:33N 46°24' W 072°24'10 9.9
2015-May-18 00:31N 46°31' W 072°13'9 9.7
2015-May-17 23:33N 46°35' W 072°01'  
2015-May-12 21:28N 46°31' W 072°13'1213.3
2015-May-12 20:34N 46°23' W 072°26'1312.7
2015-May-12 19:34N 46°16' W 072°41'1513.8
2015-May-12 18:30N 46°07' W 072°58'  

Dump ship's entire track history